Terminal Aerodrome Forecast
Issued by NWS Wilmington, OH

Current Version | Previous Version | Text Only | Print | Product List | Glossary Off
Versions: 1 2 3 4 5 6 7 8 9 10 11 12 13 14 15 16 17 18 19 20 21 22 23 24 25 26 27 28 29 30 31 32 33 34 35

382
FTUS41 KILN 272042 AAA
TAFCVG
TAF AMD
KCVG 272042Z 2721/2824 28008KT P6SM VCTS BKN035CB
     FM280000 VRB03KT P6SM BKN080
     FM280500 VRB03KT P6SM VCSH BKN050
     FM280900 16004KT 5SM -SHRA BR VCTS OVC025CB
     FM281400 21010KT P6SM BKN050
     FM282100 21010KT P6SM VCSH BKN050=

USA.gov is the U.S. government's official web portal to all federal, state and local government web resources and services.